createdAt,value
2022-10-15T00:00:28.541Z,100.00
2022-10-15T00:01:17.074Z,100.00
2022-10-15T00:02:04.191Z,100.00
2022-10-15T00:02:51.032Z,100.00
2022-10-15T00:03:39.692Z,100.00
2022-10-15T00:04:26.392Z,100.00
2022-10-15T00:05:13.211Z,100.00
2022-10-15T00:06:04.943Z,100.00
2022-10-15T00:06:51.721Z,100.00
2022-10-15T00:07:38.491Z,100.00
2022-10-15T00:08:25.269Z,100.00
2022-10-15T00:09:12.112Z,100.00
2022-10-15T00:09:59.121Z,100.00
2022-10-15T00:10:45.922Z,100.00
2022-10-15T00:11:32.812Z,100.00
2022-10-15T00:12:19.583Z,100.00
2022-10-15T00:13:06.809Z,100.00
2022-10-15T00:13:55.131Z,100.00
2022-10-15T00:14:41.941Z,100.00
2022-10-15T00:15:28.851Z,100.00
2022-10-15T00:16:18.431Z,100.00
2022-10-15T00:17:05.221Z,100.00
2022-10-15T00:17:52.029Z,100.00
2022-10-15T00:18:39.323Z,100.00
2022-10-15T00:19:26.042Z,100.00
2022-10-15T00:20:14.393Z,100.00
2022-10-15T00:21:01.141Z,100.00
2022-10-15T00:21:48.016Z,100.00
2022-10-15T00:22:34.966Z,100.00
2022-10-15T00:23:22.180Z,100.00
2022-10-15T00:24:09.140Z,100.00
2022-10-15T00:24:55.873Z,100.00
2022-10-15T00:25:42.902Z,100.00
2022-10-15T00:26:30.331Z,100.00
2022-10-15T00:27:17.151Z,100.00
2022-10-15T00:28:03.963Z,100.00
2022-10-15T00:28:52.701Z,100.00
2022-10-15T00:29:39.630Z,100.00
2022-10-15T00:30:26.452Z,100.00
2022-10-15T00:31:15.270Z,100.00
2022-10-15T00:32:02.013Z,100.00
2022-10-15T00:32:49.101Z,100.00
2022-10-15T00:33:36.224Z,100.00
2022-10-15T00:34:22.992Z,100.00
2022-10-15T00:35:09.774Z,100.00
2022-10-15T00:36:05.049Z,100.00
2022-10-15T00:36:51.841Z,100.00
2022-10-15T00:37:38.621Z,100.00
2022-10-15T00:38:25.402Z,100.00
2022-10-15T00:39:12.242Z,100.00
2022-10-15T00:39:59.232Z,100.00
2022-10-15T00:40:46.042Z,100.00
2022-10-15T00:41:36.380Z,100.00
2022-10-15T00:42:23.747Z,100.00
2022-10-15T00:43:11.981Z,100.00
2022-10-15T00:44:01.232Z,100.00
2022-10-15T00:44:54.310Z,100.00
2022-10-15T00:45:41.076Z,100.00
2022-10-15T00:46:34.032Z,100.00
2022-10-15T00:47:37.251Z,100.00
2022-10-15T00:48:24.081Z,100.00
2022-10-15T00:49:19.052Z,100.00
2022-10-15T00:50:17.710Z,100.00
2022-10-15T00:51:05.171Z,100.00
2022-10-15T00:51:58.014Z,100.00
2022-10-15T00:52:50.866Z,100.00
2022-10-15T00:53:37.713Z,100.00
2022-10-15T00:54:25.982Z,100.00
2022-10-15T00:55:25.832Z,100.00
2022-10-15T00:56:13.351Z,100.00
2022-10-15T00:57:00.630Z,100.00
2022-10-15T00:57:49.373Z,100.00
2022-10-15T00:58:36.422Z,100.00
2022-10-15T00:59:25.101Z,100.00
2022-10-15T01:00:15.460Z,100.00
2022-10-15T01:01:02.283Z,100.00
2022-10-15T01:01:49.059Z,100.00
2022-10-15T01:02:36.191Z,100.00
2022-10-15T01:03:23.061Z,100.00
2022-10-15T01:04:10.642Z,100.00
2022-10-15T01:04:57.402Z,100.00
2022-10-15T01:05:44.442Z,100.00
2022-10-15T01:06:31.203Z,100.00
2022-10-15T01:07:18.082Z,100.00
2022-10-15T01:08:04.932Z,100.00
2022-10-15T01:08:52.805Z,100.00
2022-10-15T01:09:42.691Z,100.00
2022-10-15T01:10:56.876Z,100.00
2022-10-15T01:11:48.970Z,100.00
2022-10-15T01:12:38.731Z,100.00
2022-10-15T01:13:33.500Z,100.00
2022-10-15T01:14:40.456Z,100.00
2022-10-15T01:15:57.973Z,100.00
2022-10-15T01:16:54.370Z,100.00
2022-10-15T01:17:52.922Z,100.00
2022-10-15T01:18:54.580Z,100.00
2022-10-15T01:19:53.343Z,100.00
2022-10-15T01:20:58.541Z,100.00
2022-10-15T01:21:54.651Z,100.00
2022-10-15T01:23:25.238Z,100.00
2022-10-15T01:24:12.641Z,100.00
2022-10-15T01:25:02.374Z,100.00
2022-10-15T01:26:02.720Z,100.00
2022-10-15T01:27:05.580Z,100.00
2022-10-15T01:27:58.211Z,100.00
2022-10-15T01:29:06.702Z,100.00
2022-10-15T01:30:12.422Z,100.00
2022-10-15T01:31:02.832Z,100.00
2022-10-15T01:31:52.588Z,100.00
2022-10-15T01:33:00.022Z,100.00
2022-10-15T01:34:02.858Z,100.00
2022-10-15T01:35:01.932Z,99.68
2022-10-15T01:35:51.361Z,99.70
2022-10-15T01:36:41.626Z,99.43
2022-10-15T01:37:37.399Z,99.68
2022-10-15T01:38:51.982Z,99.61
2022-10-15T01:39:45.532Z,99.70
2022-10-15T01:40:41.222Z,99.25
2022-10-15T01:41:32.755Z,98.38
2022-10-15T01:42:29.490Z,98.22
2022-10-15T01:44:18.881Z,98.39
2022-10-15T01:45:20.380Z,97.45
2022-10-15T01:46:11.002Z,96.79
2022-10-15T01:47:08.180Z,96.29
2022-10-15T01:48:02.572Z,96.97
2022-10-15T01:48:50.771Z,96.83
2022-10-15T01:49:41.422Z,96.38
2022-10-15T01:50:31.243Z,96.03
2022-10-15T01:51:18.580Z,95.19
2022-10-15T01:52:10.588Z,94.57
2022-10-15T01:52:58.471Z,95.34
2022-10-15T01:53:46.562Z,95.49
2022-10-15T01:54:33.782Z,93.88
2022-10-15T01:55:21.652Z,93.91
2022-10-15T01:56:11.560Z,93.79
2022-10-15T01:56:59.131Z,94.12
2022-10-15T01:57:46.640Z,94.39
2022-10-15T01:58:35.812Z,94.69
2022-10-15T01:59:25.062Z,94.69
2022-10-15T02:00:12.582Z,94.24
2022-10-15T02:00:59.747Z,94.37
2022-10-15T02:01:47.203Z,94.90
2022-10-15T02:02:33.970Z,95.21
2022-10-15T02:03:20.762Z,95.35
2022-10-15T02:04:19.481Z,95.25
2022-10-15T02:05:08.190Z,95.35
2022-10-15T02:06:04.542Z,95.40
2022-10-15T02:07:06.371Z,94.36
2022-10-15T02:08:19.221Z,93.78
2022-10-15T02:09:32.511Z,93.23
2022-10-15T02:10:24.470Z,93.28
2022-10-15T02:11:17.363Z,93.21
2022-10-15T02:12:07.271Z,92.80
2022-10-15T02:13:02.974Z,93.37
2022-10-15T02:13:58.491Z,93.02
2022-10-15T02:14:54.285Z,92.30
2022-10-15T02:15:43.898Z,91.88
2022-10-15T02:16:30.622Z,91.84
2022-10-15T02:17:19.661Z,92.43
2022-10-15T02:18:17.784Z,91.91
2022-10-15T02:19:24.772Z,91.48
2022-10-15T02:20:23.421Z,92.07
2022-10-15T02:21:18.500Z,92.29
2022-10-15T02:22:11.804Z,92.31
2022-10-15T02:23:05.942Z,92.06
2022-10-15T02:24:10.007Z,91.36
2022-10-15T02:25:00.343Z,90.67
2022-10-15T02:25:48.522Z,90.53
2022-10-15T02:26:35.822Z,90.70
2022-10-15T02:27:22.852Z,90.47
2022-10-15T02:28:11.762Z,90.43
2022-10-15T02:28:59.952Z,89.99
2022-10-15T02:29:48.210Z,90.14
2022-10-15T02:30:37.933Z,90.41
2022-10-15T02:31:26.301Z,90.27
2022-10-15T02:32:14.913Z,89.92
2022-10-15T02:33:01.652Z,89.36
2022-10-15T02:33:49.181Z,89.65
2022-10-15T02:34:36.143Z,89.96
2022-10-15T02:35:23.261Z,90.35
2022-10-15T02:36:10.100Z,90.51
2022-10-15T02:37:02.711Z,89.87
2022-10-15T02:37:51.022Z,88.18
2022-10-15T02:38:38.582Z,87.64
2022-10-15T02:39:25.622Z,87.40
2022-10-15T02:40:12.869Z,87.37
2022-10-15T02:40:59.987Z,86.78
2022-10-15T02:41:47.560Z,86.55
2022-10-15T02:42:34.392Z,86.36
2022-10-15T02:43:22.421Z,85.28
2022-10-15T02:44:09.281Z,84.25
2022-10-15T02:44:56.071Z,84.87
2022-10-15T02:45:43.071Z,85.29
2022-10-15T02:46:30.521Z,85.70
2022-10-15T02:47:17.507Z,85.91
2022-10-15T02:48:04.971Z,85.29
2022-10-15T02:48:51.754Z,85.09
2022-10-15T02:49:39.181Z,84.39
2022-10-15T02:50:25.901Z,84.28
2022-10-15T02:51:12.711Z,83.84
2022-10-15T02:51:59.665Z,84.68
2022-10-15T02:52:46.491Z,85.18
2022-10-15T02:53:33.661Z,84.98
2022-10-15T02:54:20.572Z,83.41
2022-10-15T02:55:07.896Z,83.01
2022-10-15T02:55:54.870Z,83.41
2022-10-15T02:56:41.707Z,83.15
2022-10-15T02:57:28.501Z,82.32
2022-10-15T02:58:15.241Z,82.83
2022-10-15T02:59:02.143Z,82.78
2022-10-15T02:59:48.911Z,82.47
2022-10-15T03:00:35.664Z,81.61
2022-10-15T03:01:22.528Z,80.69
2022-10-15T03:02:09.401Z,81.07
2022-10-15T03:02:56.490Z,81.95
2022-10-15T03:03:43.541Z,82.40
2022-10-15T03:04:30.316Z,82.12
2022-10-15T03:05:17.249Z,81.88
2022-10-15T03:06:04.256Z,81.67
2022-10-15T03:06:51.101Z,80.71
2022-10-15T03:07:38.274Z,80.54
2022-10-15T03:08:25.032Z,80.15
2022-10-15T03:09:11.879Z,80.66
2022-10-15T03:09:58.682Z,80.39
2022-10-15T03:10:46.685Z,80.25
2022-10-15T03:11:33.532Z,80.65
2022-10-15T03:12:23.404Z,79.81
2022-10-15T03:13:10.163Z,79.84
2022-10-15T03:13:57.045Z,79.22
2022-10-15T03:14:43.821Z,79.33
2022-10-15T03:15:30.773Z,79.23
2022-10-15T03:16:18.011Z,79.43
2022-10-15T03:17:04.892Z,79.90
2022-10-15T03:17:51.652Z,79.62
2022-10-15T03:18:40.655Z,79.63
2022-10-15T03:19:27.831Z,79.12
2022-10-15T03:20:14.650Z,78.96
2022-10-15T03:21:01.709Z,79.04
2022-10-15T03:21:48.491Z,79.50
2022-10-15T03:22:35.343Z,79.33
2022-10-15T03:23:22.680Z,79.48
2022-10-15T03:24:09.441Z,78.26
2022-10-15T03:24:56.162Z,78.16
2022-10-15T03:25:43.001Z,77.96
2022-10-15T03:26:29.871Z,77.96
2022-10-15T03:27:16.674Z,77.99
2022-10-15T03:28:03.518Z,79.11
2022-10-15T03:28:50.350Z,79.32
2022-10-15T03:29:37.164Z,78.12
2022-10-15T03:30:23.932Z,77.77
2022-10-15T03:31:10.741Z,77.40
2022-10-15T03:31:57.513Z,76.79
2022-10-15T03:32:44.494Z,76.62
2022-10-15T03:33:31.284Z,76.34
2022-10-15T03:34:18.431Z,76.39
2022-10-15T03:35:06.002Z,76.89
2022-10-15T03:35:52.951Z,77.00
2022-10-15T03:36:39.721Z,76.30
2022-10-15T03:37:26.524Z,75.60
2022-10-15T03:38:13.542Z,75.79
2022-10-15T03:39:00.303Z,75.43
2022-10-15T03:39:47.081Z,75.68
2022-10-15T03:40:34.473Z,75.63
2022-10-15T03:41:21.251Z,75.38
2022-10-15T03:42:08.052Z,75.61
2022-10-15T03:42:56.657Z,76.22
2022-10-15T03:43:43.421Z,76.81
2022-10-15T03:44:30.382Z,75.86
2022-10-15T03:45:17.389Z,76.16
2022-10-15T03:46:05.630Z,76.78
2022-10-15T03:46:52.372Z,76.09
2022-10-15T03:47:39.156Z,76.31
2022-10-15T03:48:25.951Z,76.38
2022-10-15T03:49:12.751Z,76.20
2022-10-15T03:49:59.533Z,76.60
2022-10-15T03:50:47.101Z,76.97
2022-10-15T03:51:33.842Z,76.97
2022-10-15T03:52:20.807Z,76.16
2022-10-15T03:53:07.842Z,75.62
2022-10-15T03:53:54.623Z,75.66
2022-10-15T03:54:41.446Z,75.16
2022-10-15T03:55:28.202Z,75.59
2022-10-15T03:56:15.141Z,75.66
2022-10-15T03:57:01.922Z,75.92
2022-10-15T03:57:48.709Z,75.01
2022-10-15T03:58:35.629Z,74.82
2022-10-15T03:59:22.478Z,75.41
2022-10-15T04:00:10.001Z,75.81
2022-10-15T04:00:56.790Z,75.44
2022-10-15T04:01:44.312Z,75.63
2022-10-15T04:02:31.882Z,76.59
2022-10-15T04:03:18.681Z,75.47
2022-10-15T04:04:05.631Z,75.19
2022-10-15T04:04:53.552Z,76.14
2022-10-15T04:05:40.371Z,75.47
2022-10-15T04:06:27.244Z,75.23
2022-10-15T04:07:14.058Z,75.63
2022-10-15T04:08:00.864Z,75.96
2022-10-15T04:08:47.863Z,75.80
2022-10-15T04:09:34.723Z,76.25
2022-10-15T04:10:21.945Z,76.37
2022-10-15T04:11:08.713Z,76.46
2022-10-15T04:11:55.439Z,76.53
2022-10-15T04:12:42.269Z,76.62
2022-10-15T04:13:29.862Z,76.82
2022-10-15T04:14:16.602Z,76.39
2022-10-15T04:15:03.942Z,76.46
2022-10-15T04:15:50.893Z,76.84
2022-10-15T04:16:37.740Z,77.02
2022-10-15T04:17:24.541Z,77.35
2022-10-15T04:18:11.831Z,77.36
2022-10-15T04:18:59.051Z,77.34
2022-10-15T04:19:46.012Z,77.02
2022-10-15T04:20:33.142Z,77.29
2022-10-15T04:21:19.901Z,77.13
2022-10-15T04:22:06.622Z,76.99
2022-10-15T04:22:53.381Z,77.40
2022-10-15T04:23:40.133Z,77.41
2022-10-15T04:24:26.890Z,78.05
2022-10-15T04:25:13.742Z,78.62
2022-10-15T04:26:01.410Z,78.78
2022-10-15T04:26:48.221Z,78.71
2022-10-15T04:27:35.039Z,79.12
2022-10-15T04:28:21.937Z,79.12
2022-10-15T04:29:08.992Z,79.17
2022-10-15T04:29:55.801Z,79.22
2022-10-15T04:30:42.596Z,78.96
2022-10-15T04:31:29.421Z,79.08
2022-10-15T04:32:16.886Z,78.55
2022-10-15T04:33:03.706Z,78.55
2022-10-15T04:33:50.503Z,78.57
2022-10-15T04:34:37.352Z,78.75
2022-10-15T04:35:24.261Z,78.98
2022-10-15T04:36:13.218Z,79.27
2022-10-15T04:37:00.142Z,79.28
2022-10-15T04:37:47.134Z,78.86
2022-10-15T04:38:34.504Z,78.68
2022-10-15T04:39:21.653Z,78.87
2022-10-15T04:40:09.113Z,78.99
2022-10-15T04:41:10.241Z,79.04
2022-10-15T04:41:57.052Z,79.22
2022-10-15T04:42:43.770Z,79.35
2022-10-15T04:43:30.652Z,79.77
2022-10-15T04:44:17.481Z,78.75
2022-10-15T04:45:04.705Z,78.69
2022-10-15T04:45:51.480Z,78.50
2022-10-15T04:46:38.271Z,78.82
2022-10-15T04:47:25.418Z,78.59
2022-10-15T04:48:12.402Z,78.72
2022-10-15T04:48:59.223Z,78.57
2022-10-15T04:49:46.064Z,78.89
2022-10-15T04:50:32.802Z,79.03
2022-10-15T04:51:21.062Z,79.03
2022-10-15T04:52:07.890Z,79.21
2022-10-15T04:52:54.678Z,79.62
2022-10-15T04:53:41.541Z,79.93
2022-10-15T04:55:20.100Z,81.49
2022-10-15T04:56:09.204Z,81.39
2022-10-15T04:56:55.969Z,81.54
2022-10-15T04:57:42.921Z,81.35
2022-10-15T04:58:31.592Z,80.64
2022-10-15T04:59:18.420Z,80.43
2022-10-15T05:00:06.154Z,80.45
2022-10-15T05:00:52.963Z,80.81
2022-10-15T05:01:39.661Z,81.11
2022-10-15T05:02:26.602Z,81.58
2022-10-15T05:03:13.480Z,80.77
2022-10-15T05:04:00.282Z,79.67
2022-10-15T05:04:47.021Z,80.01
2022-10-15T05:05:33.781Z,80.64
2022-10-15T05:06:21.731Z,79.50
2022-10-15T05:07:08.534Z,79.40
2022-10-15T05:07:55.372Z,79.07
2022-10-15T05:08:42.404Z,80.20
2022-10-15T05:09:29.302Z,80.10
2022-10-15T05:10:16.180Z,80.09
2022-10-15T05:11:07.628Z,80.30
2022-10-15T05:11:56.098Z,80.02
2022-10-15T05:13:35.441Z,79.28
2022-10-15T05:14:22.972Z,79.51
2022-10-15T05:15:10.329Z,78.89
2022-10-15T05:15:57.171Z,78.99
2022-10-15T05:16:43.962Z,79.10
2022-10-15T05:17:31.062Z,79.26
2022-10-15T05:18:17.803Z,79.42
2022-10-15T05:19:06.800Z,78.72
2022-10-15T05:19:53.622Z,78.76
2022-10-15T05:20:40.445Z,77.71
2022-10-15T05:21:27.459Z,77.78
2022-10-15T05:22:14.212Z,78.10
2022-10-15T05:23:00.985Z,78.27
2022-10-15T05:23:48.208Z,78.45
2022-10-15T05:24:34.941Z,78.35
2022-10-15T05:25:21.671Z,78.49
2022-10-15T05:26:14.281Z,78.81
2022-10-15T05:27:02.992Z,79.05
2022-10-15T05:27:50.139Z,78.97
2022-10-15T05:28:37.009Z,79.25
2022-10-15T05:29:23.870Z,79.40
2022-10-15T05:30:11.281Z,79.39
2022-10-15T05:31:06.701Z,78.98
2022-10-15T05:31:53.540Z,78.80
2022-10-15T05:32:40.382Z,78.82
2022-10-15T05:33:28.122Z,79.05
2022-10-15T05:34:15.143Z,77.91
2022-10-15T05:35:01.871Z,77.69
2022-10-15T05:35:48.602Z,77.84
2022-10-15T05:36:37.211Z,77.54
2022-10-15T05:37:24.245Z,77.31
2022-10-15T05:38:11.284Z,76.83
2022-10-15T05:39:03.331Z,76.67
2022-10-15T05:39:50.231Z,77.13
2022-10-15T05:40:37.001Z,77.24
2022-10-15T05:41:24.230Z,77.59
2022-10-15T05:42:11.231Z,77.39
2022-10-15T05:42:58.022Z,76.94
2022-10-15T05:43:47.722Z,77.62
2022-10-15T05:44:34.473Z,77.38
2022-10-15T05:45:21.289Z,76.92
2022-10-15T05:46:08.693Z,76.81
2022-10-15T05:46:55.452Z,76.91
2022-10-15T05:47:42.262Z,76.73
2022-10-15T05:48:29.034Z,75.50
2022-10-15T05:49:15.871Z,75.25
2022-10-15T05:50:02.680Z,75.76
2022-10-15T05:50:49.436Z,75.56
2022-10-15T05:51:36.272Z,75.91
2022-10-15T05:52:23.405Z,76.12
2022-10-15T05:53:10.382Z,76.01
2022-10-15T05:53:58.193Z,75.74
2022-10-15T05:54:44.927Z,75.19
2022-10-15T05:55:32.041Z,74.68
2022-10-15T05:56:18.750Z,73.97
2022-10-15T05:57:05.582Z,74.41
2022-10-15T05:57:52.327Z,74.52
2022-10-15T05:58:39.165Z,74.12
2022-10-15T05:59:25.949Z,73.82
2022-10-15T06:00:13.443Z,73.76
2022-10-15T06:01:02.414Z,73.69
2022-10-15T06:01:49.307Z,73.71
2022-10-15T06:02:36.242Z,72.46
2022-10-15T06:03:23.655Z,71.77
2022-10-15T06:04:10.601Z,71.48
2022-10-15T06:04:57.412Z,71.57
2022-10-15T06:05:44.161Z,71.46
2022-10-15T06:06:30.943Z,71.18
2022-10-15T06:07:17.761Z,71.35
2022-10-15T06:08:04.595Z,71.05
2022-10-15T06:08:52.325Z,71.05
2022-10-15T06:09:39.126Z,71.29
2022-10-15T06:10:28.620Z,71.63
2022-10-15T06:11:16.533Z,70.71
2022-10-15T06:12:03.299Z,70.07
2022-10-15T06:12:51.345Z,70.51
2022-10-15T06:13:39.781Z,70.29
2022-10-15T06:14:27.054Z,70.46
2022-10-15T06:15:13.828Z,70.12
2022-10-15T06:16:00.621Z,69.70
2022-10-15T06:16:50.818Z,70.13
2022-10-15T06:17:37.722Z,69.70
2022-10-15T06:18:24.553Z,69.55
2022-10-15T06:19:11.360Z,69.90
2022-10-15T06:19:58.121Z,70.51
2022-10-15T06:20:45.103Z,70.55
2022-10-15T06:21:31.971Z,69.82
2022-10-15T06:22:18.772Z,69.67
2022-10-15T06:23:05.911Z,69.46
2022-10-15T06:23:52.594Z,69.93
2022-10-15T06:24:39.401Z,70.58
2022-10-15T06:25:27.193Z,69.49
2022-10-15T06:26:14.093Z,69.04
2022-10-15T06:27:00.923Z,68.60
2022-10-15T06:27:47.666Z,68.80
2022-10-15T06:28:35.661Z,68.68
2022-10-15T06:29:22.404Z,68.85
2022-10-15T06:30:09.622Z,68.82
2022-10-15T06:30:59.093Z,68.62
2022-10-15T06:31:46.132Z,67.76
2022-10-15T06:32:32.925Z,67.65
2022-10-15T06:33:19.761Z,67.83
2022-10-15T06:34:06.625Z,67.28
2022-10-15T06:34:53.721Z,67.00
2022-10-15T06:35:41.457Z,66.52
2022-10-15T06:36:28.241Z,66.72
2022-10-15T06:37:15.018Z,67.16
2022-10-15T06:38:06.731Z,67.07
2022-10-15T06:38:54.146Z,66.78
2022-10-15T06:39:41.301Z,66.81
2022-10-15T06:40:28.145Z,66.04
2022-10-15T06:41:14.949Z,65.93
2022-10-15T06:42:02.444Z,67.37
2022-10-15T06:42:49.232Z,67.75
2022-10-15T06:43:36.465Z,67.71
2022-10-15T06:44:23.241Z,66.60
2022-10-15T06:45:11.055Z,66.23
2022-10-15T06:45:59.461Z,65.70
2022-10-15T06:46:46.242Z,65.74
2022-10-15T06:47:33.613Z,65.92
2022-10-15T06:48:20.421Z,66.12
2022-10-15T06:49:07.152Z,65.08
2022-10-15T06:49:53.866Z,65.14
2022-10-15T06:50:40.857Z,65.06
2022-10-15T06:51:27.643Z,66.98
2022-10-15T06:52:14.472Z,65.56
2022-10-15T06:53:01.421Z,63.59
2022-10-15T06:53:48.195Z,63.99
2022-10-15T06:54:35.061Z,65.14
2022-10-15T06:55:21.887Z,64.99
2022-10-15T06:56:08.763Z,64.49
2022-10-15T06:56:55.592Z,64.69
2022-10-15T06:57:42.341Z,64.79
2022-10-15T06:58:29.393Z,64.61
2022-10-15T06:59:16.211Z,64.66
2022-10-15T07:00:03.401Z,64.82
2022-10-15T07:00:50.252Z,64.87
2022-10-15T07:01:39.862Z,64.08
2022-10-15T07:02:29.926Z,63.90
2022-10-15T07:03:16.653Z,62.59
2022-10-15T07:04:03.501Z,62.68
2022-10-15T07:04:50.442Z,62.72
2022-10-15T07:05:37.321Z,63.02
2022-10-15T07:06:24.182Z,62.67
2022-10-15T07:07:10.931Z,63.37
2022-10-15T07:07:58.071Z,63.52
2022-10-15T07:08:46.082Z,63.63
2022-10-15T07:09:33.112Z,63.23
2022-10-15T07:11:09.521Z,62.38
2022-10-15T07:11:56.746Z,63.24
2022-10-15T07:12:43.443Z,63.52
2022-10-15T07:13:30.952Z,63.04
2022-10-15T07:14:17.891Z,62.70
2022-10-15T07:15:07.391Z,62.52
2022-10-15T07:15:56.233Z,62.51
2022-10-15T07:16:43.081Z,61.47
2022-10-15T07:17:31.804Z,61.44
2022-10-15T07:18:18.613Z,61.92
2022-10-15T07:19:05.650Z,62.21
2022-10-15T07:19:52.338Z,61.63
2022-10-15T07:20:39.143Z,61.96
2022-10-15T07:21:25.879Z,61.97
2022-10-15T07:22:12.663Z,62.45
2022-10-15T07:23:00.731Z,62.30
2022-10-15T07:23:47.551Z,61.29
2022-10-15T07:24:34.580Z,61.81
2022-10-15T07:25:21.498Z,61.29
2022-10-15T07:26:08.491Z,60.75
2022-10-15T07:26:55.471Z,61.32
2022-10-15T07:27:42.771Z,61.59
2022-10-15T07:28:29.763Z,62.22
2022-10-15T07:29:16.935Z,62.76
2022-10-15T07:30:05.415Z,60.12
2022-10-15T07:30:52.853Z,60.10
2022-10-15T07:31:39.964Z,60.61
2022-10-15T07:32:27.732Z,60.56
2022-10-15T07:33:14.543Z,60.13
2022-10-15T07:34:01.431Z,59.63
2022-10-15T07:34:48.281Z,59.81
2022-10-15T07:35:35.096Z,59.48
2022-10-15T07:36:22.020Z,59.44
2022-10-15T07:37:08.842Z,59.80
2022-10-15T07:37:56.411Z,59.94
2022-10-15T07:38:43.811Z,60.26
2022-10-15T07:39:30.699Z,60.81
2022-10-15T07:40:18.672Z,61.10
2022-10-15T07:41:06.221Z,60.76
2022-10-15T07:41:52.933Z,59.42
2022-10-15T07:42:41.233Z,59.68
2022-10-15T07:43:28.550Z,60.28
2022-10-15T07:44:15.402Z,59.87
2022-10-15T07:45:02.161Z,60.95
2022-10-15T07:45:50.434Z,60.20
2022-10-15T07:46:37.301Z,60.28
2022-10-15T07:47:24.507Z,60.20
2022-10-15T07:48:11.775Z,59.89
2022-10-15T07:48:58.565Z,60.43
2022-10-15T07:49:45.432Z,60.65
2022-10-15T07:50:35.445Z,59.90
2022-10-15T07:51:24.032Z,60.41
2022-10-15T07:52:10.955Z,60.54
2022-10-15T07:52:57.753Z,60.91
2022-10-15T07:53:45.094Z,60.94
2022-10-15T07:54:33.577Z,59.74
2022-10-15T07:55:20.461Z,59.31
2022-10-15T07:56:08.984Z,59.79
2022-10-15T07:56:55.852Z,57.89
2022-10-15T07:57:42.642Z,58.17
2022-10-15T07:58:31.202Z,58.54
2022-10-15T07:59:18.061Z,59.34
2022-10-15T08:00:06.440Z,58.30
2022-10-15T08:00:53.285Z,57.41
2022-10-15T08:01:40.132Z,57.33
2022-10-15T08:02:27.284Z,57.04
2022-10-15T08:03:14.212Z,56.68
2022-10-15T08:04:01.063Z,57.06
2022-10-15T08:04:47.963Z,57.29
2022-10-15T08:05:34.973Z,56.51
2022-10-15T08:06:21.992Z,56.41
2022-10-15T08:07:10.311Z,56.34
2022-10-15T08:07:57.423Z,57.25
2022-10-15T08:08:44.442Z,55.69
2022-10-15T08:09:31.261Z,56.08
2022-10-15T08:10:18.906Z,54.88
2022-10-15T08:11:10.373Z,54.96
2022-10-15T08:11:57.284Z,54.83
2022-10-15T08:12:44.053Z,54.85
2022-10-15T08:13:30.895Z,54.92
2022-10-15T08:14:18.073Z,54.27
2022-10-15T08:15:05.287Z,54.79
2022-10-15T08:15:56.232Z,55.10
2022-10-15T08:16:46.162Z,54.13
2022-10-15T08:17:33.005Z,54.42
2022-10-15T08:18:19.743Z,54.45
2022-10-15T08:19:06.845Z,54.36
2022-10-15T08:19:54.284Z,54.72
2022-10-15T08:20:41.163Z,54.79
2022-10-15T08:21:28.153Z,54.86
2022-10-15T08:22:14.985Z,55.30
2022-10-15T08:23:03.029Z,54.30
2022-10-15T08:23:49.801Z,54.41
2022-10-15T08:24:36.567Z,53.26
2022-10-15T08:25:23.408Z,53.22
2022-10-15T08:26:10.472Z,53.71
2022-10-15T08:26:58.563Z,53.69
2022-10-15T08:27:45.271Z,53.89
2022-10-15T08:28:33.262Z,54.51
2022-10-15T08:29:20.164Z,54.32
2022-10-15T08:30:07.416Z,53.10
2022-10-15T08:30:54.235Z,53.78
2022-10-15T08:31:41.330Z,53.77
2022-10-15T08:32:28.101Z,54.22
2022-10-15T08:33:15.281Z,54.31
2022-10-15T08:34:05.527Z,55.18
2022-10-15T08:34:52.311Z,55.01
2022-10-15T08:35:44.837Z,54.02
2022-10-15T08:36:32.064Z,54.12
2022-10-15T08:37:18.908Z,54.47
2022-10-15T08:38:05.903Z,53.87
2022-10-15T08:38:52.762Z,53.03
2022-10-15T08:39:39.642Z,53.57
2022-10-15T08:40:26.483Z,54.07
2022-10-15T08:41:38.100Z,54.68
2022-10-15T08:42:51.650Z,53.69
2022-10-15T08:43:41.110Z,52.04
2022-10-15T08:44:31.543Z,52.52
2022-10-15T08:45:20.422Z,53.30
2022-10-15T08:46:12.751Z,51.60
2022-10-15T08:47:09.541Z,51.96
2022-10-15T08:48:06.342Z,52.03
2022-10-15T08:48:58.681Z,52.65
2022-10-15T08:49:54.475Z,52.57
2022-10-15T08:50:50.377Z,52.32
2022-10-15T08:51:47.582Z,52.23
2022-10-15T08:52:43.992Z,51.85
2022-10-15T08:53:36.483Z,52.07
2022-10-15T08:54:23.945Z,53.91
2022-10-15T08:55:16.419Z,54.31
2022-10-15T08:56:06.311Z,52.95
2022-10-15T08:57:08.694Z,53.18
2022-10-15T08:58:02.831Z,53.59
2022-10-15T08:58:58.740Z,53.07
2022-10-15T09:00:02.020Z,52.73
2022-10-15T09:00:57.412Z,52.92
2022-10-15T09:02:18.162Z,52.87
2022-10-15T09:03:36.283Z,52.82
2022-10-15T09:04:47.763Z,52.38
2022-10-15T09:05:47.453Z,51.99
2022-10-15T09:06:38.382Z,52.48
2022-10-15T09:07:53.584Z,52.80
2022-10-15T09:09:07.495Z,53.14
2022-10-15T09:10:32.641Z,52.95
2022-10-15T09:11:47.422Z,54.03
2022-10-15T09:13:13.952Z,53.08
2022-10-15T09:14:06.221Z,53.39
2022-10-15T09:14:56.958Z,52.57
2022-10-15T09:15:50.828Z,53.76
2022-10-15T09:16:39.482Z,53.52
2022-10-15T09:17:28.399Z,52.89
2022-10-15T09:18:22.962Z,53.65
2022-10-15T09:19:18.786Z,53.47
2022-10-15T09:20:07.974Z,52.53
2022-10-15T09:20:55.353Z,52.60
2022-10-15T09:21:42.760Z,52.04
2022-10-15T09:22:32.251Z,52.15
2022-10-15T09:23:25.991Z,52.37
2022-10-15T09:24:13.842Z,51.07
2022-10-15T09:25:11.460Z,50.86
2022-10-15T09:26:13.072Z,51.00
2022-10-15T09:27:12.078Z,50.43
2022-10-15T09:28:00.053Z,49.81
2022-10-15T09:29:14.864Z,50.05
2022-10-15T09:30:19.861Z,49.96
2022-10-15T09:31:09.222Z,50.03
2022-10-15T09:32:14.044Z,50.22
2022-10-15T09:33:30.012Z,49.55
2022-10-15T09:34:28.174Z,49.44
2022-10-15T09:35:15.560Z,49.00
2022-10-15T09:36:15.003Z,47.74
2022-10-15T09:37:06.733Z,47.29
2022-10-15T09:38:05.876Z,47.69
2022-10-15T09:39:04.801Z,48.94
2022-10-15T09:40:09.495Z,48.86
2022-10-15T09:41:20.617Z,49.03
2022-10-15T09:42:10.583Z,47.49
2022-10-15T09:42:58.522Z,48.26
2022-10-15T09:43:47.439Z,48.07
2022-10-15T09:44:38.151Z,47.94
2022-10-15T09:45:25.334Z,47.94
2022-10-15T09:46:12.785Z,48.07
2022-10-15T09:46:59.970Z,48.70
2022-10-15T09:47:47.034Z,48.27
2022-10-15T09:48:42.333Z,47.53
2022-10-15T09:49:33.881Z,47.77
2022-10-15T09:50:23.026Z,47.75
2022-10-15T09:51:26.021Z,48.26
2022-10-15T09:52:35.841Z,48.07
2022-10-15T09:54:01.691Z,47.91
2022-10-15T09:55:04.114Z,47.90
2022-10-15T09:56:01.271Z,47.78
2022-10-15T09:56:57.742Z,47.24
2022-10-15T09:57:47.893Z,47.08
2022-10-15T09:58:40.682Z,46.98
2022-10-15T09:59:28.279Z,47.74
2022-10-15T10:00:15.526Z,47.73
2022-10-15T10:01:05.048Z,48.36
2022-10-15T10:02:25.017Z,47.05
2022-10-15T10:03:15.788Z,47.48
2022-10-15T10:04:12.902Z,47.80
2022-10-15T10:05:19.268Z,46.90
2022-10-15T10:06:12.172Z,46.98
2022-10-15T10:07:03.226Z,46.95
2022-10-15T10:07:50.019Z,46.82
2022-10-15T10:09:51.174Z,46.73
2022-10-15T10:10:40.750Z,46.45
2022-10-15T10:11:49.803Z,46.36
2022-10-15T10:12:37.711Z,47.15
2022-10-15T10:13:25.997Z,47.70
2022-10-15T10:14:29.125Z,47.55
2022-10-15T10:15:22.184Z,46.34
2022-10-15T10:16:10.761Z,45.89
2022-10-15T10:17:27.351Z,46.30
2022-10-15T10:18:21.820Z,46.52
2022-10-15T10:19:14.951Z,45.93
2022-10-15T10:20:14.451Z,45.51
2022-10-15T10:21:03.811Z,45.74
2022-10-15T10:21:50.682Z,45.96
2022-10-15T10:23:01.631Z,45.74
2022-10-15T10:23:49.092Z,45.53
2022-10-15T10:24:36.644Z,45.56
2022-10-15T10:25:29.619Z,45.86
2022-10-15T10:26:16.623Z,45.66
2022-10-15T10:27:52.021Z,44.48
2022-10-15T10:29:04.906Z,44.63
2022-10-15T10:30:00.341Z,44.92
2022-10-15T10:31:04.077Z,43.80
2022-10-15T10:31:52.522Z,44.16
2022-10-15T10:32:39.473Z,43.60
2022-10-15T10:33:42.930Z,43.47
2022-10-15T10:34:32.153Z,43.54
2022-10-15T10:35:28.694Z,43.28
2022-10-15T10:36:24.540Z,43.79
2022-10-15T10:37:11.732Z,43.62
2022-10-15T10:37:58.561Z,43.05
2022-10-15T10:38:55.801Z,43.94
2022-10-15T10:39:43.401Z,43.81
2022-10-15T10:40:33.806Z,44.05
2022-10-15T10:41:20.781Z,43.98
2022-10-15T10:42:23.521Z,43.47
2022-10-15T10:43:29.981Z,43.57
2022-10-15T10:44:31.865Z,44.27
2022-10-15T10:45:23.768Z,44.60